x

Georgian Bay (45137) Wave Buoy

8:00am - Wed 20th Aug 2014 All times are CDT. -5 hours from GMT.

  • Sig Wave height 2.6ft
  • Peak Period 5s
  • Wind
    13mph, 16mph gusts
  • Sea Temp 60°f
  • Air Temp 61°f
  • Sea Pressure 1011.3mb
  • Georgian Bay
  • Georgian Bay

More Historic Weather Station data

Upgrade to MSW Pro to gain access to the past 30 days of data for over 8000 Wavebouys and Weather Stations around the globe.

Join Pro

Comparision Forecast

View Surf forecast
   
Wed 08/20 8:00am 2.5ft 5s 13 16 mph 1011.3mb 60f 61f
7:00am 2.5ft 5s 16 20 mph 1010.6mb 60f 61f
6:00am 3.5ft 5s 13 22 mph 1010.4mb 60f 62f
5:00am 3.5ft 5s 16 18 mph 1010mb 60f 62f
4:00am 3ft 5s 18 20 mph 1009.4mb 60f 62f
3:00am 3.5ft 5s 16 18 mph 1009.5mb 60f 62f
2:00am 3.5ft 5s 18 20 mph 1009.2mb 60f 63f
1:00am 3.5ft 5s 20 22 mph 1008.9mb 60f 63f
12:00am 4ft 5s 20 25 mph 1008.8mb 60f 64f
Tue 08/19 11:00pm 3.5ft 5s 20 25 mph 1008.7mb 60f 64f
10:00pm 3.5ft 5s 18 22 mph 1008.5mb 61f 65f
9:00pm 3ft 5s 22 25 mph 1008mb 61f 65f
8:00pm 2.5ft 4s 20 25 mph 1008.2mb 61f 65f
7:00pm 2ft 4s 11 13 mph 1009.1mb 61f 64f
6:00pm 1.6ft 4s 16 18 mph 1008.6mb 61f 66f
5:00pm 2ft 4s 13 16 mph 1009.1mb 61f 64f
4:00pm 2ft 4s 13 16 mph 1009.1mb 61f 64f
3:00pm 2.5ft 4s 16
mph
1009mb 60f 64f
2:00pm 2.5ft 4s 13 16 mph 1009.8mb 60f 63f
1:00pm 2.5ft 4s 16 18 mph 1010.4mb 60f 62f
12:00pm 2.5ft 4s 13 16 mph 1010.6mb 60f 62f
11:00am 2ft 4s 18 20 mph 1011mb 60f 62f
10:00am 1.6ft 4s 16 18 mph 1011.5mb 60f 62f
9:00am 1.6ft 3s 13 16 mph 1011.3mb 60f 61f
8:00am 1.3ft 3s 13 16 mph 1011mb 60f 62f
7:00am 1ft 3s 11 13 mph 1011mb 60f 62f
6:00am 1.3ft 3s 11 13 mph 1011mb 61f 62f
5:00am 1.3ft 3s 13 16 mph 1010.6mb 61f 62f
4:00am 1ft 3s 13 18 mph 1010.5mb 62f 62f
3:00am 0.7ft 2s 13 16 mph 1010.8mb 62f 61f
2:00am 0.7ft 2s 11 13 mph 1010.8mb 61f 62f
1:00am 0.3ft 2s 9 11 mph 1011.5mb 61f 62f
12:00am 0.3ft 2s 11 13 mph 1011.8mb 61f 62f
Mon 08/18 11:00pm 0.3ft 2s 9
mph
1012.2mb 61f 61f
10:00pm  -  2s 7 9 mph 1012.5mb 61f 61f
9:00pm  -  2s 7
mph
1012.6mb 61f 61f
8:00pm  -  2s 4
mph
1012.8mb 61f 61f
7:00pm 0.3ft 2s 4
mph
1012.7mb 61f 60f
6:00pm 0.3ft 3s 4
mph
1013.2mb 61f 60f
5:00pm 0.3ft 2s 2
mph
1013.5mb 61f 60f
4:00pm 0.3ft 3s 2 4 mph 1013.9mb 62f 60f
3:00pm 0.3ft 2s 4 7 mph 1014.5mb 63f 60f
2:00pm 0.3ft 2s 4 7 mph 1015mb 64f 59f
1:00pm 0.3ft 2s 2 4 mph 1015.2mb 63f 59f
12:00pm 0.3ft 2s 2 4 mph 1015.6mb 62f 58f
11:00am 0.3ft 3s 4 7 mph 1016.4mb 62f 58f
10:00am 0.7ft 3s 4 7 mph 1016.8mb 61f 57f
9:00am 0.7ft 3s 7 9 mph 1017mb 61f 56f
8:00am 1ft 3s 9
mph
1017mb 60f 56f
7:00am 1ft 3s 7 9 mph 1017.1mb 60f 56f
6:00am 1ft 3s 9 11 mph 1016.7mb 60f 56f
5:00am 1ft 2s 11 13 mph 1016.3mb 60f 57f
4:00am 1ft 3s 13
mph
1016.2mb 60f 57f
3:00am 1ft 3s 11 13 mph 1016.2mb 60f 58f
2:00am 1.3ft 3s 13
mph
1016.3mb 60f 58f
1:00am 1.6ft 3s 11 13 mph 1016.5mb 60f 58f
12:00am 2ft 3s 13 16 mph 1016.7mb 60f 58f
Sun 08/17 10:00pm 0.7ft 3s 7 11 mph 1016.8mb 61f 61f
9:00pm 0.7ft 3s 7 9 mph 1016.8mb 61f 61f
8:00pm 0.7ft 2s 4 7 mph 1016.5mb 61f 61f
7:00pm 0.7ft 2s 9 11 mph 1016.2mb 61f 61f
6:00pm 0.3ft 2s 11 13 mph 1016.4mb 62f 61f
5:00pm 0.3ft 2s 11 13 mph 1016.6mb 62f 61f
4:00pm 0.3ft 2s 9
mph
1016.7mb 62f 61f
3:00pm 0.3ft 2s 9 11 mph 1016.9mb 62f 61f
2:00pm 0.7ft 3s 9
mph
1017.1mb 62f 61f
1:00pm 0.7ft 3s 2 4 mph 1017.3mb 61f 62f
12:00pm 1ft 3s 7 9 mph 1017.4mb 61f 61f
11:00am 1ft 3s 9 11 mph 1017.4mb 60f 60f
10:00am 1.3ft 3s 11 13 mph 1016.9mb 60f 59f
9:00am 1.3ft 3s 13 16 mph 1016.8mb 60f 59f
8:00am 1.3ft 3s 11 13 mph 1016.8mb 60f 59f
6:00am 1.6ft 3s 16 18 mph 1015.8mb 60f 60f
5:00am 1ft 3s 13 16 mph 1015.2mb 60f 60f
4:00am 1ft 3s 13 16 mph 1014.5mb 60f 60f
3:00am 1ft 3s 13 16 mph 1013.8mb 60f 60f
2:00am 1ft 3s 11 16 mph 1013.1mb 60f 61f
1:00am 0.7ft 2s 13 16 mph 1012.9mb 60f 61f
12:00am 0.7ft 6s 9 11 mph 1012.9mb 60f 61f
Sat 08/16 11:00pm 0.7ft 4s 4 7 mph 1012.6mb 60f 61f
10:00pm 0.7ft 4s 7
mph
1012.2mb 60f 62f
9:00pm 0.7ft 4s 4 7 mph 1011.7mb 60f 61f
8:00pm 0.7ft 4s 7 9 mph 1011mb 60f 61f
7:00pm 1ft 5s 4
mph
1010.1mb 60f 61f
6:00pm 1ft 5s 7
mph
1009.5mb 60f 61f
5:00pm 1.3ft 4s 11 13 mph 1009mb 60f 62f
4:00pm 1.6ft 4s 11 13 mph 1008.1mb 60f 61f
3:00pm 2ft 4s 7 9 mph 1007.7mb 60f 60f